Time;durP1;ratioP1;P1;durP2;ratioP2;P2;SDS_P1;SDS_P2;PMS_P1;PMS_P2;Temp;Humidity;BMP_temperature;BMP_pressure;BME280_temperature;BME280_humidity;BME280_pressure;Samples;Min_cycle;Max_cycle;Signal;HPM_P1;HPM_P2
2024/01/09 00:00:12;;;;;;;5.15;3.53;;;;;;;;;;2054283;28;20047;-75
2024/01/09 00:01:31;;;;;;;3.97;3.15;;;;;;;;;;2057748;28;20035;-74
2024/01/09 00:02:51;;;;;;;3.55;3.25;;;;;;;;;;2055397;28;20036;-74
2024/01/09 00:04:10;;;;;;;3.83;3.03;;;;;;;;;;2054444;28;20031;-75
2024/01/09 00:05:29;;;;;;;5.45;3.33;;;;;;;;;;2054907;28;20031;-75
2024/01/09 00:06:48;;;;;;;4.22;3.15;;;;;;;;;;2057653;28;20056;-76
2024/01/09 00:08:08;;;;;;;3.20;2.90;;;;;;;;;;2052350;28;20054;-75
2024/01/09 00:09:27;;;;;;;3.80;3.22;;;;;;;;;;2057322;28;20035;-75
2024/01/09 00:10:46;;;;;;;3.35;2.85;;;;;;;;;;2055884;28;20035;-75
2024/01/09 00:12:09;;;;;;;3.13;2.83;;;;;;;;;;2052556;28;20027;-75
2024/01/09 00:13:28;;;;;;;3.75;3.15;;;;;;;;;;2054718;28;20473;-75
2024/01/09 00:14:48;;;;;;;4.57;3.05;;;;;;;;;;2058586;28;20110;-75
2024/01/09 00:16:07;;;;;;;3.90;2.67;;;;;;;;;;2053168;28;20507;-75
2024/01/09 00:17:26;;;;;;;3.40;3.10;;;;;;;;;;2053306;28;20067;-75
2024/01/09 00:18:45;;;;;;;6.65;3.05;;;;;;;;;;2054460;28;20039;-75
2024/01/09 00:20:05;;;;;;;3.15;2.78;;;;;;;;;;2053537;28;20026;-75
2024/01/09 00:21:24;;;;;;;3.67;2.97;;;;;;;;;;2059549;28;20499;-76
2024/01/09 00:22:43;;;;;;;2.90;2.70;;;;;;;;;;2058533;28;20043;-76
2024/01/09 00:24:02;;;;;;;2.70;2.20;;;;;;;;;;2055320;28;20030;-77
2024/01/09 00:25:21;;;;;;;2.63;2.15;;;;;;;;;;2060090;28;20023;-75
2024/01/09 00:26:44;;;;;;;3.22;2.90;;;;;;;;;;2054459;28;20034;-74
2024/01/09 00:28:03;;;;;;;2.53;2.33;;;;;;;;;;2052463;28;20023;-75
2024/01/09 00:29:22;;;;;;;5.65;2.33;;;;;;;;;;2053920;28;20408;-75
2024/01/09 00:30:41;;;;;;;3.70;2.22;;;;;;;;;;2052409;28;20460;-74
2024/01/09 00:32:00;;;;;;;4.97;2.60;;;;;;;;;;2057258;28;20102;-75
2024/01/09 00:33:19;;;;;;;2.80;2.60;;;;;;;;;;2055055;28;20030;-76
2024/01/09 00:34:40;;;;;;;3.25;2.65;;;;;;;;;;2052915;28;20416;-75
2024/01/09 00:36:01;;;;;;;3.78;3.47;;;;;;;;;;2052394;28;20459;-75
2024/01/09 00:37:21;;;;;;;3.25;2.40;;;;;;;;;;2055908;28;20472;-75
2024/01/09 00:38:40;;;;;;;2.90;2.60;;;;;;;;;;2057235;28;20031;-75
2024/01/09 00:39:59;;;;;;;4.55;2.70;;;;;;;;;;2055660;28;20034;-75
2024/01/09 00:41:17;;;;;;;3.75;3.13;;;;;;;;;;2055532;28;20027;-75
2024/01/09 00:42:36;;;;;;;3.42;2.70;;;;;;;;;;2053352;28;20031;-75
2024/01/09 00:43:55;;;;;;;2.85;2.65;;;;;;;;;;2053526;28;20019;-76
2024/01/09 00:45:14;;;;;;;3.03;2.72;;;;;;;;;;2055470;28;20030;-75
2024/01/09 00:46:34;;;;;;;6.20;2.58;;;;;;;;;;2050613;28;20395;-76
2024/01/09 00:47:56;;;;;;;3.00;2.78;;;;;;;;;;2049960;28;20086;-75
2024/01/09 00:49:15;;;;;;;4.25;3.10;;;;;;;;;;2056227;28;20039;-75
2024/01/09 00:50:33;;;;;;;4.88;3.05;;;;;;;;;;2055160;28;20038;-76
2024/01/09 00:51:52;;;;;;;3.72;3.03;;;;;;;;;;2054609;28;20379;-75
2024/01/09 00:53:11;;;;;;;2.72;2.53;;;;;;;;;;2054907;28;20027;-75
2024/01/09 00:54:31;;;;;;;2.97;2.50;;;;;;;;;;2053089;28;20476;-74
2024/01/09 00:55:49;;;;;;;3.47;2.78;;;;;;;;;;2052899;28;20039;-75
2024/01/09 00:57:09;;;;;;;3.95;2.72;;;;;;;;;;2054338;28;20026;-75
2024/01/09 00:58:28;;;;;;;3.22;2.92;;;;;;;;;;2056287;28;20485;-74
2024/01/09 00:59:47;;;;;;;2.90;2.65;;;;;;;;;;2057194;28;20039;-75
2024/01/09 01:01:06;;;;;;;3.28;2.95;;;;;;;;;;2060781;28;20492;-75
2024/01/09 01:02:25;;;;;;;3.83;2.70;;;;;;;;;;2061916;28;20045;-75
2024/01/09 01:03:44;;;;;;;2.97;2.38;;;;;;;;;;2055706;28;20038;-75
2024/01/09 01:05:03;;;;;;;3.53;2.70;;;;;;;;;;2061330;28;20031;-75
2024/01/09 01:06:22;;;;;;;3.63;2.80;;;;;;;;;;2053761;28;20019;-75
2024/01/09 01:07:41;;;;;;;3.92;2.83;;;;;;;;;;2058758;28;20026;-75
2024/01/09 01:09:00;;;;;;;2.33;2.05;;;;;;;;;;2063206;28;20031;-75
2024/01/09 01:10:19;;;;;;;2.75;2.22;;;;;;;;;;2066640;28;20078;-76
2024/01/09 01:11:38;;;;;;;3.00;2.70;;;;;;;;;;2072499;28;20038;-77
2024/01/09 01:12:57;;;;;;;3.65;2.78;;;;;;;;;;2071013;28;20046;-76
2024/01/09 01:14:16;;;;;;;2.63;2.40;;;;;;;;;;2064320;28;20038;-76
2024/01/09 01:15:36;;;;;;;3.85;2.80;;;;;;;;;;2063976;28;20031;-75
2024/01/09 01:16:55;;;;;;;3.22;2.58;;;;;;;;;;2062262;28;20101;-74
2024/01/09 01:18:14;;;;;;;2.67;2.28;;;;;;;;;;2061076;28;20062;-75
2024/01/09 01:19:33;;;;;;;2.95;2.65;;;;;;;;;;2062686;28;20556;-75
2024/01/09 01:20:52;;;;;;;2.42;2.22;;;;;;;;;;2057292;28;20062;-75
2024/01/09 01:22:11;;;;;;;3.00;2.55;;;;;;;;;;2057468;28;20082;-75
2024/01/09 01:23:29;;;;;;;2.45;2.20;;;;;;;;;;2057724;28;20400;-74
2024/01/09 01:24:48;;;;;;;2.72;2.50;;;;;;;;;;2064930;28;20462;-74
2024/01/09 01:26:07;;;;;;;2.53;2.33;;;;;;;;;;2055115;28;20276;-75
2024/01/09 01:27:26;;;;;;;2.60;2.40;;;;;;;;;;2058518;28;20105;-75
2024/01/09 01:28:45;;;;;;;3.72;2.70;;;;;;;;;;2063225;28;20030;-75
2024/01/09 01:30:04;;;;;;;3.65;2.65;;;;;;;;;;2055809;28;20031;-76
2024/01/09 01:31:23;;;;;;;2.50;1.77;;;;;;;;;;2065869;28;20034;-75
2024/01/09 01:32:42;;;;;;;2.67;2.10;;;;;;;;;;2060968;28;20062;-74
2024/01/09 01:34:01;;;;;;;2.20;2.00;;;;;;;;;;2066714;28;20026;-75
2024/01/09 01:35:20;;;;;;;2.33;2.13;;;;;;;;;;2055640;28;20039;-74
2024/01/09 01:36:39;;;;;;;3.28;2.67;;;;;;;;;;2051660;28;20039;-74
2024/01/09 01:37:58;;;;;;;2.25;2.03;;;;;;;;;;2060299;28;20023;-75
2024/01/09 01:39:17;;;;;;;5.70;2.55;;;;;;;;;;2061900;28;20028;-75
2024/01/09 01:40:36;;;;;;;2.33;2.13;;;;;;;;;;2065866;28;20105;-75
2024/01/09 01:41:55;;;;;;;3.60;2.35;;;;;;;;;;2057942;28;20023;-74
2024/01/09 01:43:13;;;;;;;3.47;2.20;;;;;;;;;;2059079;28;20113;-75
2024/01/09 01:44:32;;;;;;;3.72;2.28;;;;;;;;;;2053423;28;20161;-75
2024/01/09 01:45:51;;;;;;;3.67;2.17;;;;;;;;;;2053571;28;20512;-76
2024/01/09 01:47:10;;;;;;;2.63;2.42;;;;;;;;;;2055048;28;20110;-75
2024/01/09 01:48:30;;;;;;;2.55;2.35;;;;;;;;;;2061698;28;20034;-75
2024/01/09 01:49:50;;;;;;;4.32;2.60;;;;;;;;;;2066591;28;20386;-76
2024/01/09 01:51:09;;;;;;;2.97;2.67;;;;;;;;;;2072589;28;20026;-76
2024/01/09 01:52:28;;;;;;;3.40;2.47;;;;;;;;;;2061766;28;20043;-76
2024/01/09 01:53:47;;;;;;;4.55;2.20;;;;;;;;;;2067752;28;20030;-76
2024/01/09 01:55:07;;;;;;;3.13;2.25;;;;;;;;;;2055301;28;20396;-75
2024/01/09 01:56:27;;;;;;;5.38;2.35;;;;;;;;;;2064288;28;20042;-75
2024/01/09 01:57:47;;;;;;;2.85;2.17;;;;;;;;;;2063343;28;20121;-74
2024/01/09 01:59:07;;;;;;;2.60;2.40;;;;;;;;;;2054765;28;20114;-75
2024/01/09 02:00:26;;;;;;;2.92;2.10;;;;;;;;;;2062642;28;20051;-75
2024/01/09 02:01:46;;;;;;;2.78;2.58;;;;;;;;;;2064125;28;20037;-75
2024/01/09 02:03:05;;;;;;;3.00;2.40;;;;;;;;;;2065768;28;20038;-76
2024/01/09 02:04:24;;;;;;;2.28;2.10;;;;;;;;;;2055378;28;20026;-75
2024/01/09 02:05:43;;;;;;;3.15;2.30;;;;;;;;;;2059834;28;20328;-75
2024/01/09 02:07:02;;;;;;;2.80;2.28;;;;;;;;;;2064769;28;20058;-75
2024/01/09 02:08:23;;;;;;;3.20;2.38;;;;;;;;;;2056429;28;20031;-75
2024/01/09 02:09:42;;;;;;;2.95;2.10;;;;;;;;;;2054502;28;20511;-74
2024/01/09 02:11:01;;;;;;;3.40;2.20;;;;;;;;;;2056525;28;20468;-75
2024/01/09 02:12:20;;;;;;;2.60;2.33;;;;;;;;;;2053115;28;20661;-75
2024/01/09 02:13:39;;;;;;;3.33;2.13;;;;;;;;;;2059905;28;20117;-75
2024/01/09 02:14:59;;;;;;;1.98;1.88;;;;;;;;;;2065346;28;20407;-75
2024/01/09 02:16:18;;;;;;;2.67;2.47;;;;;;;;;;2057239;28;20035;-75
2024/01/09 02:17:38;;;;;;;2.35;2.08;;;;;;;;;;2051634;28;20022;-75
2024/01/09 02:18:57;;;;;;;2.50;2.30;;;;;;;;;;2054239;28;20072;-75
2024/01/09 02:20:19;;;;;;;2.53;2.22;;;;;;;;;;2057027;28;20053;-75
2024/01/09 02:21:39;;;;;;;3.05;2.28;;;;;;;;;;2060425;28;20088;-75
2024/01/09 02:22:57;;;;;;;2.83;1.90;;;;;;;;;;2054650;28;20032;-75
2024/01/09 02:24:18;;;;;;;2.72;2.33;;;;;;;;;;2052667;28;20035;-75
2024/01/09 02:25:37;;;;;;;2.40;2.20;;;;;;;;;;2066490;28;20361;-76
2024/01/09 02:27:16;;;;;;;2.00;1.80;;;;;;;;;;2065393;28;20480;-75
2024/01/09 02:28:50;;;;;;;2.38;2.10;;;;;;;;;;2083314;28;20112;-75
2024/01/09 02:30:10;;;;;;;2.55;1.95;;;;;;;;;;2062379;28;20460;-75
2024/01/09 02:31:29;;;;;;;2.47;2.25;;;;;;;;;;2064606;28;20034;-75
2024/01/09 02:32:49;;;;;;;2.65;2.13;;;;;;;;;;2066832;28;20046;-75
2024/01/09 02:34:10;;;;;;;2.13;2.00;;;;;;;;;;2065455;28;20038;-75
2024/01/09 02:35:29;;;;;;;2.83;1.83;;;;;;;;;;2057425;28;20175;-76
2024/01/09 02:36:48;;;;;;;2.30;2.10;;;;;;;;;;2052455;28;20031;-75
2024/01/09 02:38:07;;;;;;;1.52;1.42;;;;;;;;;;2051659;28;20019;-76
2024/01/09 02:39:28;;;;;;;2.08;1.60;;;;;;;;;;2060139;28;20034;-74
2024/01/09 02:40:48;;;;;;;2.25;2.05;;;;;;;;;;2063125;28;20039;-75
2024/01/09 02:42:07;;;;;;;3.75;2.15;;;;;;;;;;2056043;28;20519;-75
2024/01/09 02:43:26;;;;;;;2.47;2.03;;;;;;;;;;2051388;28;20031;-75
2024/01/09 02:44:44;;;;;;;2.05;1.90;;;;;;;;;;2049489;28;20032;-75
2024/01/09 02:46:03;;;;;;;2.25;1.95;;;;;;;;;;2060632;28;20042;-75
2024/01/09 02:47:22;;;;;;;2.70;1.85;;;;;;;;;;2059877;28;20027;-76
2024/01/09 02:48:41;;;;;;;2.22;1.83;;;;;;;;;;2060338;28;20080;-74
2024/01/09 02:50:00;;;;;;;1.83;1.73;;;;;;;;;;2063536;28;20034;-75
2024/01/09 02:51:19;;;;;;;2.10;1.95;;;;;;;;;;2062902;28;20491;-75
2024/01/09 02:52:38;;;;;;;2.55;2.20;;;;;;;;;;2062501;28;20109;-74
2024/01/09 02:53:57;;;;;;;1.70;1.60;;;;;;;;;;2055161;28;20031;-76
2024/01/09 02:55:16;;;;;;;3.63;1.95;;;;;;;;;;2061857;28;20035;-75
2024/01/09 02:56:38;;;;;;;1.90;1.80;;;;;;;;;;2055932;28;20028;-75
2024/01/09 02:57:57;;;;;;;2.80;1.95;;;;;;;;;;2053115;28;20019;-74
2024/01/09 02:59:17;;;;;;;2.28;2.03;;;;;;;;;;2051576;28;20027;-75
2024/01/09 03:00:36;;;;;;;2.70;2.13;;;;;;;;;;2057636;28;20051;-75
2024/01/09 03:01:55;;;;;;;2.20;1.77;;;;;;;;;;2063199;28;20022;-77
2024/01/09 03:03:14;;;;;;;1.70;1.60;;;;;;;;;;2057967;28;20023;-75
2024/01/09 03:04:32;;;;;;;2.00;1.80;;;;;;;;;;2057298;28;20122;-75
2024/01/09 03:05:51;;;;;;;1.67;1.58;;;;;;;;;;2055601;28;20030;-75
2024/01/09 03:07:10;;;;;;;1.88;1.77;;;;;;;;;;2063279;28;20026;-75
2024/01/09 03:08:29;;;;;;;1.80;1.70;;;;;;;;;;2061838;28;20037;-76
2024/01/09 03:09:48;;;;;;;1.65;1.55;;;;;;;;;;2055065;28;20035;-75
2024/01/09 03:11:07;;;;;;;2.20;1.92;;;;;;;;;;2050581;28;20055;-75
2024/01/09 03:12:26;;;;;;;1.77;1.52;;;;;;;;;;2059154;28;20031;-75
2024/01/09 03:13:45;;;;;;;2.33;1.70;;;;;;;;;;2055534;28;20031;-75
2024/01/09 03:15:04;;;;;;;2.92;2.10;;;;;;;;;;2051763;28;20046;-75
2024/01/09 03:16:23;;;;;;;1.60;1.50;;;;;;;;;;2060904;28;20459;-74
2024/01/09 03:17:43;;;;;;;2.35;1.70;;;;;;;;;;2064885;28;20933;-75
2024/01/09 03:19:02;;;;;;;1.95;1.80;;;;;;;;;;2063340;28;20065;-76
2024/01/09 03:20:20;;;;;;;1.20;1.00;;;;;;;;;;2054528;28;20488;-74
2024/01/09 03:21:39;;;;;;;2.28;1.70;;;;;;;;;;2050128;28;20039;-75
2024/01/09 03:22:58;;;;;;;1.98;1.75;;;;;;;;;;2054068;28;20038;-75
2024/01/09 03:24:18;;;;;;;2.10;1.90;;;;;;;;;;2059790;28;20117;-74
2024/01/09 03:25:36;;;;;;;1.70;1.60;;;;;;;;;;2060388;28;20027;-75
2024/01/09 03:26:55;;;;;;;1.90;1.70;;;;;;;;;;2057890;28;20019;-75
2024/01/09 03:28:15;;;;;;;1.70;1.60;;;;;;;;;;2056363;28;20039;-74
2024/01/09 03:29:33;;;;;;;2.88;1.40;;;;;;;;;;2050663;28;20036;-75
2024/01/09 03:30:52;;;;;;;2.40;2.20;;;;;;;;;;2058708;28;20138;-74
2024/01/09 03:32:11;;;;;;;2.10;1.88;;;;;;;;;;2057301;28;20027;-75
2024/01/09 03:33:30;;;;;;;2.08;1.60;;;;;;;;;;2048727;28;20058;-76
2024/01/09 03:34:49;;;;;;;1.88;1.77;;;;;;;;;;2052267;28;20062;-75
2024/01/09 03:36:08;;;;;;;5.97;1.90;;;;;;;;;;2051502;28;20039;-75
2024/01/09 03:37:27;;;;;;;2.33;1.90;;;;;;;;;;2057690;28;20105;-76
2024/01/09 03:38:46;;;;;;;1.73;1.63;;;;;;;;;;2064551;28;20039;-75
2024/01/09 03:40:05;;;;;;;4.55;2.17;;;;;;;;;;2055503;28;20027;-75
2024/01/09 03:41:24;;;;;;;1.80;1.70;;;;;;;;;;2060388;28;20391;-75
2024/01/09 03:42:43;;;;;;;2.83;1.83;;;;;;;;;;2061701;28;20558;-75
2024/01/09 03:44:02;;;;;;;3.05;1.80;;;;;;;;;;2053405;28;20031;-75
2024/01/09 03:45:21;;;;;;;2.72;1.60;;;;;;;;;;2053236;28;20066;-76
2024/01/09 03:46:41;;;;;;;2.22;2.00;;;;;;;;;;2051719;28;20031;-75
2024/01/09 03:47:59;;;;;;;2.38;1.88;;;;;;;;;;2059297;28;20022;-75
2024/01/09 03:49:18;;;;;;;2.30;2.10;;;;;;;;;;2056101;28;20039;-75
2024/01/09 03:50:37;;;;;;;2.65;1.90;;;;;;;;;;2061879;28;20055;-75
2024/01/09 03:51:58;;;;;;;2.25;1.80;;;;;;;;;;2064354;28;20031;-74
2024/01/09 03:53:17;;;;;;;2.03;1.73;;;;;;;;;;2064150;28;20031;-74
2024/01/09 03:54:36;;;;;;;1.83;1.60;;;;;;;;;;2062950;28;20034;-75
2024/01/09 03:55:55;;;;;;;2.20;1.60;;;;;;;;;;2054680;28;20043;-75
2024/01/09 03:57:14;;;;;;;2.10;1.90;;;;;;;;;;2062224;28;20038;-75
2024/01/09 03:58:33;;;;;;;1.70;1.58;;;;;;;;;;2054487;28;20039;-76
2024/01/09 03:59:52;;;;;;;1.67;1.58;;;;;;;;;;2060011;28;21667;-75
2024/01/09 04:01:12;;;;;;;2.10;1.60;;;;;;;;;;2062978;28;20035;-75
2024/01/09 04:02:31;;;;;;;1.50;1.40;;;;;;;;;;2056404;28;20038;-76
2024/01/09 04:03:50;;;;;;;2.50;1.75;;;;;;;;;;2060566;28;20030;-75
2024/01/09 04:05:09;;;;;;;2.45;1.85;;;;;;;;;;2053908;28;20039;-75
2024/01/09 04:06:28;;;;;;;1.60;1.50;;;;;;;;;;2070129;28;20039;-75
2024/01/09 04:07:46;;;;;;;1.55;1.38;;;;;;;;;;2058052;28;20118;-74
2024/01/09 04:09:05;;;;;;;1.60;1.45;;;;;;;;;;2055734;28;20023;-75
2024/01/09 04:10:24;;;;;;;1.98;1.40;;;;;;;;;;2052209;28;20058;-74
2024/01/09 04:11:44;;;;;;;1.65;1.52;;;;;;;;;;2060282;28;20057;-74
2024/01/09 04:13:03;;;;;;;3.90;1.65;;;;;;;;;;2063404;28;20031;-75
2024/01/09 04:14:22;;;;;;;1.65;1.55;;;;;;;;;;2063331;28;20034;-74
2024/01/09 04:15:41;;;;;;;1.42;1.33;;;;;;;;;;2064416;28;20467;-75
2024/01/09 04:17:00;;;;;;;1.83;1.30;;;;;;;;;;2056612;28;20046;-76
2024/01/09 04:18:18;;;;;;;1.67;1.58;;;;;;;;;;2054894;28;20380;-76
2024/01/09 04:19:38;;;;;;;1.50;1.40;;;;;;;;;;2055899;28;20039;-75
2024/01/09 04:20:57;;;;;;;1.50;1.40;;;;;;;;;;2063550;28;20023;-75
2024/01/09 04:22:16;;;;;;;1.58;1.42;;;;;;;;;;2063876;28;20027;-75
2024/01/09 04:23:35;;;;;;;2.03;1.80;;;;;;;;;;2063431;28;20030;-75
2024/01/09 04:24:54;;;;;;;1.73;1.52;;;;;;;;;;2063378;28;20113;-74
2024/01/09 04:26:13;;;;;;;2.20;1.50;;;;;;;;;;2062482;28;20023;-75
2024/01/09 04:27:32;;;;;;;1.27;1.17;;;;;;;;;;2064978;28;20018;-74
2024/01/09 04:28:51;;;;;;;2.03;1.67;;;;;;;;;;2059051;28;20027;-75
2024/01/09 04:30:10;;;;;;;1.85;1.75;;;;;;;;;;2058323;28;20023;-75
2024/01/09 04:31:29;;;;;;;1.17;1.10;;;;;;;;;;2063290;28;20030;-75
2024/01/09 04:32:48;;;;;;;1.75;1.38;;;;;;;;;;2053917;28;20049;-74
2024/01/09 04:34:07;;;;;;;1.20;1.10;;;;;;;;;;2061451;28;20165;-74
2024/01/09 04:35:26;;;;;;;3.20;1.67;;;;;;;;;;2054791;28;20511;-74
2024/01/09 04:36:46;;;;;;;2.00;1.60;;;;;;;;;;2061255;28;20108;-76
2024/01/09 04:38:05;;;;;;;1.60;1.50;;;;;;;;;;2057679;28;20057;-75
2024/01/09 04:39:23;;;;;;;1.50;1.38;;;;;;;;;;2050604;28;20023;-74
2024/01/09 04:40:43;;;;;;;1.75;1.38;;;;;;;;;;2051429;28;20500;-75
2024/01/09 04:42:01;;;;;;;1.58;1.30;;;;;;;;;;2051001;28;20035;-74
2024/01/09 04:43:21;;;;;;;2.15;1.50;;;;;;;;;;2060080;28;20040;-75
2024/01/09 04:44:40;;;;;;;2.90;1.40;;;;;;;;;;2063724;28;20076;-74
2024/01/09 04:45:59;;;;;;;1.77;1.40;;;;;;;;;;2055760;28;20031;-74
2024/01/09 04:47:18;;;;;;;1.40;1.02;;;;;;;;;;2054233;28;20053;-75
2024/01/09 04:48:37;;;;;;;1.70;1.60;;;;;;;;;;2069927;28;20027;-76
2024/01/09 04:49:56;;;;;;;1.20;1.08;;;;;;;;;;2069077;28;20098;-74
2024/01/09 04:51:15;;;;;;;1.88;1.38;;;;;;;;;;2069393;28;20042;-74
2024/01/09 04:52:36;;;;;;;1.60;1.50;;;;;;;;;;2052175;28;20042;-76
2024/01/09 04:53:55;;;;;;;2.10;1.35;;;;;;;;;;2060331;28;20026;-74
2024/01/09 04:55:14;;;;;;;1.50;1.40;;;;;;;;;;2053544;28;20031;-74
2024/01/09 04:56:33;;;;;;;1.17;1.15;;;;;;;;;;2058906;28;20113;-74
2024/01/09 04:57:52;;;;;;;1.30;1.20;;;;;;;;;;2060923;28;20038;-74
2024/01/09 04:59:11;;;;;;;1.23;1.08;;;;;;;;;;2054575;28;20095;-75
2024/01/09 05:00:30;;;;;;;1.65;1.20;;;;;;;;;;2057219;28;20080;-75
2024/01/09 05:01:49;;;;;;;2.25;1.40;;;;;;;;;;2055564;28;20159;-75
2024/01/09 05:03:08;;;;;;;1.60;1.17;;;;;;;;;;2057111;28;20038;-76
2024/01/09 05:04:30;;;;;;;2.08;1.27;;;;;;;;;;2054914;28;20031;-74
2024/01/09 05:05:49;;;;;;;1.80;1.15;;;;;;;;;;2058899;28;20031;-74
2024/01/09 05:07:08;;;;;;;0.98;0.98;;;;;;;;;;2061969;28;20026;-75
2024/01/09 05:08:27;;;;;;;1.20;1.10;;;;;;;;;;2062727;28;20046;-74
2024/01/09 05:09:46;;;;;;;1.65;1.00;;;;;;;;;;2053502;28;20039;-75
2024/01/09 05:11:05;;;;;;;1.58;1.35;;;;;;;;;;2050505;28;20050;-74
2024/01/09 05:12:23;;;;;;;1.10;1.00;;;;;;;;;;2056560;28;20019;-74
2024/01/09 05:13:42;;;;;;;1.13;1.02;;;;;;;;;;2058985;28;20468;-75
2024/01/09 05:15:01;;;;;;;1.30;1.17;;;;;;;;;;2054737;28;20030;-75
2024/01/09 05:16:21;;;;;;;1.38;1.27;;;;;;;;;;2056963;28;20038;-74
2024/01/09 05:17:39;;;;;;;1.52;1.20;;;;;;;;;;2060426;28;20034;-74
2024/01/09 05:18:58;;;;;;;1.13;1.02;;;;;;;;;;2063957;28;20128;-75
2024/01/09 05:20:17;;;;;;;2.67;1.30;;;;;;;;;;2055644;28;20039;-75
2024/01/09 05:21:36;;;;;;;2.20;1.58;;;;;;;;;;2059869;28;20030;-75
2024/01/09 05:22:55;;;;;;;1.00;1.00;;;;;;;;;;2066367;28;20166;-75
2024/01/09 05:24:14;;;;;;;1.55;1.38;;;;;;;;;;2062565;28;20042;-75
2024/01/09 05:25:33;;;;;;;1.83;1.33;;;;;;;;;;2064092;28;20133;-74
2024/01/09 05:26:52;;;;;;;1.42;1.10;;;;;;;;;;2062845;28;20023;-75
2024/01/09 05:28:11;;;;;;;1.48;1.25;;;;;;;;;;2063456;28;20105;-75
2024/01/09 05:29:30;;;;;;;1.25;1.15;;;;;;;;;;2065822;28;20117;-76
2024/01/09 05:30:49;;;;;;;1.38;1.27;;;;;;;;;;2066439;28;20113;-75
2024/01/09 05:32:08;;;;;;;2.42;1.10;;;;;;;;;;2053890;28;20030;-76
2024/01/09 05:33:27;;;;;;;1.63;1.52;;;;;;;;;;2059966;28;20076;-75
2024/01/09 05:34:46;;;;;;;1.40;1.10;;;;;;;;;;2064861;28;20032;-75
2024/01/09 05:36:06;;;;;;;2.95;1.35;;;;;;;;;;2055305;28;20043;-76
2024/01/09 05:37:25;;;;;;;3.42;1.30;;;;;;;;;;2053998;28;20477;-75
2024/01/09 05:38:44;;;;;;;1.33;1.23;;;;;;;;;;2059826;28;20054;-75
2024/01/09 05:40:04;;;;;;;1.40;1.30;;;;;;;;;;2064230;28;20042;-76
2024/01/09 05:41:23;;;;;;;2.08;1.20;;;;;;;;;;2070770;28;20038;-75
2024/01/09 05:42:43;;;;;;;1.33;1.23;;;;;;;;;;2062844;28;20121;-75
2024/01/09 05:44:02;;;;;;;3.22;1.50;;;;;;;;;;2056140;28;20046;-76
2024/01/09 05:45:21;;;;;;;0.95;0.95;;;;;;;;;;2051784;28;20527;-76
2024/01/09 05:46:40;;;;;;;1.58;1.40;;;;;;;;;;2057090;28;20065;-75
2024/01/09 05:47:59;;;;;;;1.02;0.90;;;;;;;;;;2059435;28;20023;-76
2024/01/09 05:49:18;;;;;;;1.38;1.27;;;;;;;;;;2056626;28;20182;-75
2024/01/09 05:50:37;;;;;;;2.03;1.27;;;;;;;;;;2062074;28;20104;-76
2024/01/09 05:51:56;;;;;;;1.45;1.20;;;;;;;;;;2055273;28;20027;-76
2024/01/09 05:53:15;;;;;;;1.20;1.10;;;;;;;;;;2065157;28;20474;-75
2024/01/09 05:54:34;;;;;;;1.92;1.17;;;;;;;;;;2061974;28;20544;-76
2024/01/09 05:55:53;;;;;;;1.27;1.17;;;;;;;;;;2055935;28;20056;-75
2024/01/09 05:57:13;;;;;;;1.30;1.20;;;;;;;;;;2061622;28;20042;-76
2024/01/09 05:58:33;;;;;;;1.42;1.08;;;;;;;;;;2062499;28;20030;-75
2024/01/09 05:59:52;;;;;;;1.10;1.00;;;;;;;;;;2065314;28;20042;-75
2024/01/09 06:01:11;;;;;;;1.80;1.55;;;;;;;;;;2062322;28;20061;-75
2024/01/09 06:02:30;;;;;;;1.58;1.48;;;;;;;;;;2052889;28;20034;-75
2024/01/09 06:03:49;;;;;;;1.60;1.30;;;;;;;;;;2057265;28;20852;-76
2024/01/09 06:05:08;;;;;;;1.38;1.10;;;;;;;;;;2053477;28;20109;-75
2024/01/09 06:06:27;;;;;;;1.02;0.95;;;;;;;;;;2058355;28;20036;-74
2024/01/09 06:07:46;;;;;;;1.50;1.33;;;;;;;;;;2064423;28;20038;-74
2024/01/09 06:09:05;;;;;;;1.20;1.10;;;;;;;;;;2063032;28;20027;-76
2024/01/09 06:10:25;;;;;;;1.10;1.00;;;;;;;;;;2055240;28;20030;-76
2024/01/09 06:11:43;;;;;;;1.35;1.25;;;;;;;;;;2063523;28;20399;-73
2024/01/09 06:13:02;;;;;;;1.48;1.02;;;;;;;;;;2055051;28;20035;-76
2024/01/09 06:14:22;;;;;;;1.30;1.20;;;;;;;;;;2048168;28;20051;-74
2024/01/09 06:15:41;;;;;;;1.52;1.20;;;;;;;;;;2061164;28;20031;-73
2024/01/09 06:17:00;;;;;;;1.17;1.08;;;;;;;;;;2056202;28;20046;-75
2024/01/09 06:18:18;;;;;;;4.22;1.40;;;;;;;;;;2062928;28;20384;-74
2024/01/09 06:19:37;;;;;;;1.38;1.17;;;;;;;;;;2053607;28;20047;-75
2024/01/09 06:20:56;;;;;;;1.23;1.10;;;;;;;;;;2062869;28;20030;-75
2024/01/09 06:22:16;;;;;;;1.15;1.00;;;;;;;;;;2063919;28;20030;-75
2024/01/09 06:23:35;;;;;;;2.15;1.30;;;;;;;;;;2063416;28;20038;-74
2024/01/09 06:24:54;;;;;;;1.35;1.25;;;;;;;;;;2055408;28;20039;-73
2024/01/09 06:26:15;;;;;;;1.25;1.02;;;;;;;;;;2052804;28;20031;-72
2024/01/09 06:27:34;;;;;;;1.25;0.93;;;;;;;;;;2053260;28;20023;-72
2024/01/09 06:28:52;;;;;;;1.52;1.20;;;;;;;;;;2060243;28;20026;-73
2024/01/09 06:30:12;;;;;;;1.50;1.40;;;;;;;;;;2067385;28;20507;-73
2024/01/09 06:31:31;;;;;;;2.55;1.02;;;;;;;;;;2056661;28;20038;-71
2024/01/09 06:32:50;;;;;;;1.30;1.15;;;;;;;;;;2053553;28;20034;-74
2024/01/09 06:34:09;;;;;;;1.15;1.00;;;;;;;;;;2058682;28;20034;-74
2024/01/09 06:35:28;;;;;;;1.52;0.90;;;;;;;;;;2055521;28;20463;-73
2024/01/09 06:36:47;;;;;;;1.20;1.10;;;;;;;;;;2056169;28;20066;-74
2024/01/09 06:38:07;;;;;;;6.53;1.33;;;;;;;;;;2061151;28;20058;-73
2024/01/09 06:39:26;;;;;;;2.20;1.02;;;;;;;;;;2063097;28;20038;-74
2024/01/09 06:40:46;;;;;;;1.05;0.95;;;;;;;;;;2067550;28;20034;-75
2024/01/09 06:42:04;;;;;;;2.28;1.27;;;;;;;;;;2065907;28;20038;-74
2024/01/09 06:43:23;;;;;;;0.98;0.90;;;;;;;;;;2057183;28;20070;-74
2024/01/09 06:44:43;;;;;;;2.05;1.02;;;;;;;;;;2064337;28;20034;-73
2024/01/09 06:46:02;;;;;;;1.02;0.90;;;;;;;;;;2067681;28;20113;-75
2024/01/09 06:47:21;;;;;;;1.00;0.88;;;;;;;;;;2056459;28;20356;-74
2024/01/09 06:48:41;;;;;;;1.13;1.02;;;;;;;;;;2061771;28;20039;-73
2024/01/09 06:50:00;;;;;;;2.55;0.90;;;;;;;;;;2066759;28;20034;-74
2024/01/09 06:51:18;;;;;;;0.95;0.95;;;;;;;;;;2066319;28;20028;-73
2024/01/09 06:52:38;;;;;;;1.30;0.80;;;;;;;;;;2056439;28;20032;-75
2024/01/09 06:53:57;;;;;;;1.00;1.00;;;;;;;;;;2062553;28;20069;-72
2024/01/09 06:55:16;;;;;;;0.90;0.90;;;;;;;;;;2066649;28;20477;-73
2024/01/09 06:56:35;;;;;;;1.40;1.02;;;;;;;;;;2064641;28;20435;-74
2024/01/09 06:57:54;;;;;;;1.15;0.70;;;;;;;;;;2065862;28;20054;-73
2024/01/09 06:59:13;;;;;;;1.30;1.20;;;;;;;;;;2064669;28;20780;-74
2024/01/09 07:00:33;;;;;;;1.02;0.93;;;;;;;;;;2061913;28;20122;-74
2024/01/09 07:01:52;;;;;;;1.10;1.00;;;;;;;;;;2056703;28;20035;-74
2024/01/09 07:03:11;;;;;;;0.90;0.90;;;;;;;;;;2058928;28;20034;-73
2024/01/09 07:04:29;;;;;;;1.05;0.90;;;;;;;;;;2053549;28;20019;-74
2024/01/09 07:05:48;;;;;;;1.83;1.20;;;;;;;;;;2060114;28;20034;-74
2024/01/09 07:07:07;;;;;;;1.15;0.90;;;;;;;;;;2066189;28;20097;-74
2024/01/09 07:08:26;;;;;;;1.00;0.95;;;;;;;;;;2064002;28;20112;-74
2024/01/09 07:09:45;;;;;;;1.05;0.90;;;;;;;;;;2064231;28;20033;-74
2024/01/09 07:11:04;;;;;;;1.20;1.10;;;;;;;;;;2064842;28;20058;-74
2024/01/09 07:12:23;;;;;;;1.05;0.95;;;;;;;;;;2062271;28;20031;-73
2024/01/09 07:13:42;;;;;;;1.20;0.88;;;;;;;;;;2064817;28;20403;-73
2024/01/09 07:15:01;;;;;;;3.88;0.98;;;;;;;;;;2054351;28;20480;-75
2024/01/09 07:16:21;;;;;;;2.05;1.05;;;;;;;;;;2059487;28;20030;-74
2024/01/09 07:17:40;;;;;;;1.13;1.13;;;;;;;;;;2065435;28;20034;-74
2024/01/09 07:18:59;;;;;;;0.75;0.68;;;;;;;;;;2062337;28;20491;-75
2024/01/09 07:20:17;;;;;;;1.58;1.02;;;;;;;;;;2066217;28;20050;-74
2024/01/09 07:21:37;;;;;;;0.90;0.90;;;;;;;;;;2065852;28;20062;-74
2024/01/09 07:22:56;;;;;;;0.77;0.75;;;;;;;;;;2064176;28;20061;-74
2024/01/09 07:24:15;;;;;;;1.02;0.80;;;;;;;;;;2058681;28;20157;-74
2024/01/09 07:25:34;;;;;;;1.20;1.10;;;;;;;;;;2062965;28;20025;-74
2024/01/09 07:26:53;;;;;;;2.92;0.93;;;;;;;;;;2061661;28;20094;-74
2024/01/09 07:28:12;;;;;;;1.15;1.05;;;;;;;;;;2064145;28;20023;-74
2024/01/09 07:29:31;;;;;;;1.13;1.02;;;;;;;;;;2063759;28;20034;-74
2024/01/09 07:30:52;;;;;;;0.93;0.75;;;;;;;;;;2064535;28;20387;-75
2024/01/09 07:32:11;;;;;;;1.30;0.90;;;;;;;;;;2057513;28;20454;-74
2024/01/09 07:33:30;;;;;;;2.38;1.13;;;;;;;;;;2061109;28;20034;-74
2024/01/09 07:34:49;;;;;;;1.02;0.93;;;;;;;;;;2064974;28;20034;-74
2024/01/09 07:36:08;;;;;;;1.10;1.05;;;;;;;;;;2062165;28;20122;-74
2024/01/09 07:37:27;;;;;;;1.25;1.13;;;;;;;;;;2064592;28;20550;-75
2024/01/09 07:38:46;;;;;;;0.85;0.85;;;;;;;;;;2065280;28;20030;-74
2024/01/09 07:40:05;;;;;;;1.02;1.00;;;;;;;;;;2053664;28;20052;-75
2024/01/09 07:41:25;;;;;;;0.90;0.90;;;;;;;;;;2059208;28;20042;-75
2024/01/09 07:42:43;;;;;;;2.17;1.02;;;;;;;;;;2061219;28;20042;-73
2024/01/09 07:44:03;;;;;;;0.90;0.90;;;;;;;;;;2055099;28;20126;-73
2024/01/09 07:45:23;;;;;;;1.17;0.90;;;;;;;;;;2051459;28;20030;-75
2024/01/09 07:46:42;;;;;;;0.68;0.68;;;;;;;;;;2061385;28;20030;-74
2024/01/09 07:48:03;;;;;;;1.40;1.00;;;;;;;;;;2063446;28;20113;-74
2024/01/09 07:49:22;;;;;;;3.58;1.25;;;;;;;;;;2062491;28;20030;-74
2024/01/09 07:50:41;;;;;;;1.42;1.17;;;;;;;;;;2064159;28;20034;-74
2024/01/09 07:52:00;;;;;;;1.30;1.20;;;;;;;;;;2063892;28;20026;-74
2024/01/09 07:53:19;;;;;;;2.30;1.10;;;;;;;;;;2060730;28;20034;-73
2024/01/09 07:54:37;;;;;;;0.90;0.90;;;;;;;;;;2054438;28;20034;-74